createdAt,value
2024-03-06T00:00:12.779Z,100.00
2024-03-06T00:02:40.277Z,100.00
2024-03-06T00:05:08.420Z,100.00
2024-03-06T00:07:35.778Z,100.00
2024-03-06T00:10:05.050Z,100.00
2024-03-06T00:12:32.377Z,100.00
2024-03-06T00:14:59.658Z,100.00
2024-03-06T00:17:27.250Z,100.00
2024-03-06T00:19:54.821Z,100.00
2024-03-06T00:22:23.831Z,100.00
2024-03-06T00:24:52.195Z,100.00
2024-03-06T00:27:21.244Z,100.00
2024-03-06T00:29:48.586Z,100.00
2024-03-06T00:32:16.113Z,100.00
2024-03-06T00:34:43.481Z,100.00
2024-03-06T00:37:10.788Z,100.00
2024-03-06T00:39:38.091Z,100.00
2024-03-06T00:42:05.480Z,100.00
2024-03-06T00:44:34.127Z,100.00
2024-03-06T00:47:01.466Z,100.00
2024-03-06T00:49:28.764Z,100.00
2024-03-06T00:51:56.103Z,100.00
2024-03-06T00:54:23.374Z,100.00
2024-03-06T00:56:50.699Z,100.00
2024-03-06T00:59:18.017Z,100.00
2024-03-06T01:01:46.718Z,100.00
2024-03-06T01:04:14.109Z,100.00
2024-03-06T01:06:41.448Z,100.00
2024-03-06T01:09:09.378Z,100.00
2024-03-06T01:11:36.692Z,100.00
2024-03-06T01:14:04.039Z,100.00
2024-03-06T01:16:31.360Z,100.00
2024-03-06T01:19:00.075Z,100.00
2024-03-06T01:21:27.345Z,100.00
2024-03-06T01:23:54.633Z,100.00
2024-03-06T01:26:21.916Z,100.00
2024-03-06T01:28:49.218Z,100.00
2024-03-06T01:31:16.519Z,100.00
2024-03-06T01:33:43.817Z,100.00
2024-03-06T01:36:12.505Z,100.00
2024-03-06T01:38:39.795Z,100.00
2024-03-06T01:41:07.123Z,100.00
2024-03-06T01:43:39.030Z,100.00
2024-03-06T01:46:06.549Z,100.00
2024-03-06T01:48:35.300Z,100.00
2024-03-06T01:51:03.829Z,100.00
2024-03-06T01:53:34.097Z,100.00
2024-03-06T01:56:02.533Z,100.00
2024-03-06T01:58:30.053Z,100.00
2024-03-06T02:00:57.922Z,100.00
2024-03-06T02:03:26.470Z,100.00
2024-03-06T02:05:54.603Z,100.00
2024-03-06T02:08:21.991Z,100.00
2024-03-06T02:10:50.721Z,100.00
2024-03-06T02:13:18.126Z,100.00
2024-03-06T02:15:46.214Z,100.00
2024-03-06T02:18:13.654Z,100.00
2024-03-06T02:20:42.607Z,100.00
2024-03-06T02:23:10.026Z,100.00
2024-03-06T02:25:37.594Z,100.00
2024-03-06T02:28:05.512Z,100.00
2024-03-06T02:30:32.856Z,100.00
2024-03-06T02:33:00.257Z,100.00
2024-03-06T02:35:27.568Z,100.00
2024-03-06T02:37:56.234Z,100.00
2024-03-06T02:40:24.785Z,100.00
2024-03-06T02:42:52.180Z,100.00
2024-03-06T02:45:19.645Z,100.00
2024-03-06T02:47:47.338Z,100.00
2024-03-06T02:50:14.938Z,100.00
2024-03-06T02:52:42.435Z,100.00
2024-03-06T02:55:11.143Z,100.00
2024-03-06T02:57:38.428Z,100.00
2024-03-06T03:00:07.108Z,100.00
2024-03-06T03:02:34.408Z,100.00
2024-03-06T03:05:01.741Z,100.00
2024-03-06T03:07:29.083Z,100.00
2024-03-06T03:09:56.449Z,100.00
2024-03-06T03:12:25.121Z,100.00
2024-03-06T03:14:52.419Z,100.00
2024-03-06T03:17:20.077Z,100.00
2024-03-06T03:19:47.368Z,100.00
2024-03-06T03:22:14.760Z,100.00
2024-03-06T03:24:42.919Z,100.00
2024-03-06T03:27:10.205Z,100.00
2024-03-06T03:29:38.947Z,100.00
2024-03-06T03:32:06.377Z,100.00
2024-03-06T03:34:35.002Z,100.00
2024-03-06T03:37:02.760Z,100.00
2024-03-06T03:39:30.074Z,100.00
2024-03-06T03:41:57.444Z,100.00
2024-03-06T03:44:24.928Z,100.00
2024-03-06T03:46:53.729Z,100.00
2024-03-06T03:49:21.026Z,100.00
2024-03-06T03:51:48.347Z,100.00
2024-03-06T03:54:15.689Z,100.00
2024-03-06T03:56:42.974Z,100.00
2024-03-06T03:59:10.347Z,100.00
2024-03-06T04:01:37.800Z,100.00
2024-03-06T04:04:06.684Z,100.00
2024-03-06T04:06:33.956Z,100.00
2024-03-06T04:09:01.255Z,100.00
2024-03-06T04:11:28.621Z,100.00
2024-03-06T04:13:55.995Z,100.00
2024-03-06T04:16:23.303Z,100.00
2024-03-06T04:18:50.592Z,100.00
2024-03-06T04:21:19.244Z,100.00
2024-03-06T04:23:46.534Z,100.00
2024-03-06T04:26:14.753Z,100.00
2024-03-06T04:28:42.143Z,100.00
2024-03-06T04:31:09.512Z,100.00
2024-03-06T04:33:37.043Z,100.00
2024-03-06T04:36:05.545Z,100.00
2024-03-06T04:38:34.351Z,100.00
2024-03-06T04:41:01.814Z,100.00
2024-03-06T04:43:29.174Z,100.00
2024-03-06T04:45:56.475Z,100.00
2024-03-06T04:48:23.815Z,100.00
2024-03-06T04:50:51.105Z,100.00
2024-03-06T04:53:18.448Z,100.00
2024-03-06T04:55:47.319Z,100.00
2024-03-06T04:58:14.878Z,100.00
2024-03-06T05:00:42.183Z,100.00
2024-03-06T05:58:09.153Z,100.00
2024-03-06T06:00:38.042Z,100.00
2024-03-06T06:03:05.694Z,100.00
2024-03-06T06:05:33.153Z,100.00
2024-03-06T06:08:00.593Z,100.00
2024-03-06T06:10:27.942Z,100.00
2024-03-06T06:12:55.269Z,100.00
2024-03-06T06:15:22.658Z,100.00
2024-03-06T06:17:51.543Z,100.00
2024-03-06T06:20:19.045Z,100.00
2024-03-06T06:22:46.512Z,100.00
2024-03-06T06:25:14.065Z,100.00
2024-03-06T06:27:41.514Z,100.00
2024-03-06T06:30:09.567Z,100.00
2024-03-06T06:32:36.986Z,100.00
2024-03-06T06:35:06.336Z,100.00
2024-03-06T06:37:34.029Z,100.00
2024-03-06T06:40:01.436Z,100.00
2024-03-06T06:42:28.820Z,100.00
2024-03-06T06:44:56.141Z,100.00
2024-03-06T06:47:23.592Z,100.00
2024-03-06T06:49:50.914Z,100.00
2024-03-06T06:52:20.561Z,100.00
2024-03-06T06:54:47.851Z,100.00
2024-03-06T06:57:15.272Z,100.00
2024-03-06T06:59:42.665Z,100.00
2024-03-06T07:02:10.102Z,100.00
2024-03-06T07:04:37.418Z,100.00
2024-03-06T07:07:04.705Z,100.00
2024-03-06T07:09:33.360Z,100.00
2024-03-06T07:12:00.822Z,100.00
2024-03-06T07:14:28.279Z,100.00
2024-03-06T07:16:55.666Z,100.00
2024-03-06T07:19:23.012Z,100.00
2024-03-06T07:21:50.361Z,100.00
2024-03-06T07:24:17.692Z,100.00
2024-03-06T07:26:46.365Z,100.00
2024-03-06T07:29:14.059Z,100.00
2024-03-06T07:31:41.942Z,100.00
2024-03-06T07:34:09.343Z,100.00
2024-03-06T07:36:36.768Z,100.00
2024-03-06T07:39:04.954Z,100.00
2024-03-06T07:41:32.447Z,100.00
2024-03-06T07:44:01.197Z,100.00
2024-03-06T07:46:28.573Z,100.00
2024-03-06T07:48:55.974Z,100.00
2024-03-06T07:51:23.263Z,100.00
2024-03-06T07:53:50.552Z,99.22
2024-03-06T07:56:17.897Z,98.70
2024-03-06T07:58:45.492Z,98.84
2024-03-06T08:01:14.523Z,97.62
2024-03-06T08:03:42.361Z,99.94
2024-03-06T08:06:10.471Z,100.00
2024-03-06T08:08:37.945Z,99.39
2024-03-06T08:11:05.708Z,97.58
2024-03-06T08:13:33.128Z,96.44
2024-03-06T08:16:00.436Z,96.45
2024-03-06T08:18:29.179Z,95.99
2024-03-06T08:20:56.612Z,95.93
2024-03-06T08:23:24.020Z,95.83
2024-03-06T08:25:51.376Z,94.86
2024-03-06T08:28:18.715Z,94.98
2024-03-06T08:30:46.029Z,97.04
2024-03-06T08:33:13.575Z,98.00
2024-03-06T08:35:42.377Z,96.77
2024-03-06T08:38:09.687Z,96.70
2024-03-06T08:40:36.994Z,94.16
2024-03-06T08:43:04.546Z,92.80
2024-03-06T08:45:31.840Z,91.69
2024-03-06T08:47:59.180Z,92.77
2024-03-06T08:50:26.738Z,91.03
2024-03-06T08:52:55.543Z,93.11
2024-03-06T08:55:22.968Z,91.48
2024-03-06T08:57:50.399Z,90.03
2024-03-06T09:00:18.284Z,91.74
2024-03-06T09:02:45.667Z,89.45
2024-03-06T09:05:13.335Z,89.34
2024-03-06T09:07:41.082Z,88.36
2024-03-06T09:10:11.115Z,87.49
2024-03-06T09:12:38.587Z,87.54
2024-03-06T09:15:06.728Z,86.46
2024-03-06T09:17:34.328Z,85.65
2024-03-06T09:20:08.677Z,85.64
2024-03-06T09:22:37.947Z,84.13
2024-03-06T09:25:07.534Z,80.89
2024-03-06T09:27:36.407Z,82.96
2024-03-06T09:30:04.723Z,82.48
2024-03-06T09:32:32.562Z,84.15
2024-03-06T09:35:01.793Z,79.50
2024-03-06T09:37:29.710Z,77.24
2024-03-06T09:39:57.096Z,77.03
2024-03-06T09:42:24.563Z,72.68
2024-03-06T09:44:53.458Z,71.74
2024-03-06T09:47:23.676Z,68.68
2024-03-06T09:49:52.528Z,67.52
2024-03-06T09:52:19.971Z,67.94
2024-03-06T09:54:49.303Z,69.84
2024-03-06T09:57:16.651Z,72.02
2024-03-06T09:59:43.986Z,69.69
2024-03-06T10:02:42.360Z,69.39
2024-03-06T10:05:22.170Z,67.07
2024-03-06T10:07:51.000Z,64.05
2024-03-06T10:10:18.394Z,66.10
2024-03-06T10:12:46.665Z,63.04
2024-03-06T10:15:13.935Z,64.37
2024-03-06T10:17:44.334Z,64.45
2024-03-06T10:20:20.265Z,59.18
2024-03-06T10:22:50.837Z,55.48
2024-03-06T10:25:20.581Z,56.99
2024-03-06T10:27:48.082Z,56.20
2024-03-06T10:30:15.631Z,56.38
2024-03-06T10:32:44.439Z,51.86
2024-03-06T10:35:19.679Z,53.65
2024-03-06T10:37:47.308Z,53.12
2024-03-06T10:40:16.372Z,54.49
2024-03-06T10:42:45.532Z,54.76
2024-03-06T10:45:15.422Z,53.30
2024-03-06T10:47:47.338Z,51.57
2024-03-06T10:50:16.109Z,51.33
2024-03-06T10:52:44.084Z,52.20
2024-03-06T10:55:13.456Z,49.86
2024-03-06T10:57:42.884Z,51.08
2024-03-06T11:00:11.375Z,49.84
2024-03-06T11:02:39.969Z,50.47
2024-03-06T11:05:09.955Z,50.01
2024-03-06T11:07:37.671Z,49.66
2024-03-06T11:10:05.671Z,51.61
2024-03-06T11:12:39.709Z,50.43
2024-03-06T11:15:10.863Z,51.72
2024-03-06T11:17:38.211Z,50.11
2024-03-06T11:20:20.293Z,49.84
2024-03-06T11:23:08.774Z,47.72
2024-03-06T11:26:06.186Z,46.50
2024-03-06T11:28:35.089Z,49.02
2024-03-06T11:31:04.205Z,48.40
2024-03-06T11:33:39.042Z,47.71
2024-03-06T11:36:18.357Z,47.17
2024-03-06T11:38:54.364Z,48.92
2024-03-06T11:41:25.489Z,47.89
2024-03-06T11:43:54.566Z,47.55
2024-03-06T11:46:22.352Z,47.92
2024-03-06T11:48:53.908Z,47.76
2024-03-06T11:51:22.840Z,47.76
2024-03-06T11:53:53.194Z,47.46
2024-03-06T11:56:21.050Z,47.91
2024-03-06T11:58:50.248Z,48.24
2024-03-06T12:01:18.009Z,47.96
2024-03-06T12:03:45.456Z,47.90
2024-03-06T12:06:12.760Z,47.65
2024-03-06T12:08:41.709Z,47.53
2024-03-06T12:11:09.241Z,47.21
2024-03-06T12:13:36.749Z,46.94
2024-03-06T12:16:07.608Z,45.46
2024-03-06T12:18:35.075Z,46.72
2024-03-06T12:21:03.185Z,44.67
2024-03-06T12:23:30.593Z,45.93
2024-03-06T12:26:09.671Z,44.99
2024-03-06T12:28:37.323Z,45.19
2024-03-06T12:31:05.496Z,45.72
2024-03-06T12:33:34.587Z,44.02
2024-03-06T12:36:04.493Z,44.06
2024-03-06T12:38:32.088Z,43.61
2024-03-06T12:41:01.105Z,43.01
2024-03-06T12:43:29.846Z,42.91
2024-03-06T12:45:57.428Z,43.58
2024-03-06T12:48:25.235Z,44.33
2024-03-06T12:50:52.727Z,43.50
2024-03-06T12:53:20.156Z,42.93
2024-03-06T12:55:47.776Z,42.28
2024-03-06T12:58:15.534Z,43.57
2024-03-06T13:00:44.165Z,42.97
2024-03-06T13:03:11.453Z,42.20
2024-03-06T13:05:38.813Z,43.09
2024-03-06T13:08:06.633Z,43.64
2024-03-06T13:10:33.986Z,43.02
2024-03-06T13:13:01.239Z,43.51
2024-03-06T13:15:28.517Z,41.59
2024-03-06T13:17:57.213Z,42.13
2024-03-06T13:20:24.803Z,41.86
2024-03-06T13:22:52.194Z,41.84
2024-03-06T13:25:19.505Z,43.89
2024-03-06T13:27:46.769Z,42.11
2024-03-06T13:30:14.529Z,42.93
2024-03-06T13:32:41.948Z,42.50
2024-03-06T13:35:10.850Z,42.26
2024-03-06T13:37:38.121Z,40.84
2024-03-06T13:40:06.601Z,42.63
2024-03-06T13:42:34.048Z,43.02
2024-03-06T13:45:01.319Z,41.99
2024-03-06T13:47:28.778Z,41.79
2024-03-06T13:49:56.102Z,41.53
2024-03-06T13:52:24.816Z,40.35
2024-03-06T13:54:52.860Z,43.21
2024-03-06T13:57:20.170Z,42.29
2024-03-06T13:59:47.586Z,40.26
2024-03-06T14:02:14.963Z,39.07
2024-03-06T14:04:42.256Z,38.96
2024-03-06T14:07:09.559Z,41.39
2024-03-06T14:09:38.246Z,39.99
2024-03-06T14:12:06.351Z,40.57
2024-03-06T14:14:33.766Z,41.22
2024-03-06T14:17:01.131Z,41.35
2024-03-06T14:19:28.471Z,40.61
2024-03-06T14:21:56.433Z,40.55
2024-03-06T14:24:24.628Z,40.81
2024-03-06T14:26:53.571Z,39.75
2024-03-06T14:29:20.881Z,39.89
2024-03-06T14:31:48.209Z,39.07
2024-03-06T14:34:15.531Z,37.35
2024-03-06T14:36:42.846Z,36.66
2024-03-06T14:39:10.104Z,36.37
2024-03-06T14:41:37.480Z,37.46
2024-03-06T14:44:06.232Z,38.50
2024-03-06T14:46:33.580Z,38.70
2024-03-06T14:49:00.897Z,39.00
2024-03-06T14:51:28.175Z,38.36
2024-03-06T14:53:55.559Z,37.49
2024-03-06T14:56:23.008Z,37.77
2024-03-06T14:58:50.317Z,37.55
2024-03-06T15:01:19.008Z,36.35
2024-03-06T15:03:46.324Z,36.30
2024-03-06T15:06:13.932Z,37.30
2024-03-06T15:08:41.264Z,34.99
2024-03-06T15:11:08.641Z,34.52
2024-03-06T15:13:35.988Z,36.68
2024-03-06T15:16:03.378Z,37.40
2024-03-06T15:18:32.561Z,38.83
2024-03-06T15:21:00.080Z,38.79
2024-03-06T15:23:27.420Z,40.41
2024-03-06T15:25:54.817Z,38.90
2024-03-06T15:28:23.270Z,37.57
2024-03-06T15:30:50.982Z,38.35
2024-03-06T15:33:19.046Z,38.26
2024-03-06T15:35:47.808Z,37.71
2024-03-06T15:38:15.134Z,38.22
2024-03-06T15:40:42.470Z,38.56
2024-03-06T15:43:09.745Z,38.19
2024-03-06T15:45:37.049Z,37.41
2024-03-06T15:48:08.054Z,38.86
2024-03-06T15:50:35.751Z,38.32
2024-03-06T15:53:04.665Z,38.52
2024-03-06T15:55:32.063Z,38.21
2024-03-06T15:57:59.408Z,38.38
2024-03-06T16:00:26.657Z,38.07
2024-03-06T16:02:53.948Z,39.38
2024-03-06T16:05:21.348Z,38.88
2024-03-06T16:07:55.902Z,40.90
2024-03-06T16:10:28.787Z,39.99
2024-03-06T16:12:57.853Z,39.63
2024-03-06T16:15:25.369Z,40.82
2024-03-06T16:17:52.826Z,41.17
2024-03-06T16:20:20.334Z,41.12
2024-03-06T16:22:47.627Z,41.89
2024-03-06T16:25:14.970Z,42.19
2024-03-06T16:27:43.620Z,42.62
2024-03-06T16:30:12.156Z,42.23
2024-03-06T16:32:39.521Z,43.43
2024-03-06T16:35:07.356Z,43.03
2024-03-06T16:37:34.658Z,42.52
2024-03-06T16:40:02.105Z,42.92
2024-03-06T16:42:29.487Z,42.18
2024-03-06T16:44:58.138Z,42.08
2024-03-06T16:47:25.625Z,43.15
2024-03-06T16:49:53.044Z,43.30
2024-03-06T16:52:20.308Z,43.90
2024-03-06T16:54:47.583Z,44.77
2024-03-06T16:57:14.836Z,44.56
2024-03-06T16:59:42.119Z,44.94
2024-03-06T17:02:10.807Z,45.56
2024-03-06T17:04:38.092Z,47.81
2024-03-06T17:07:05.363Z,48.53
2024-03-06T17:09:32.619Z,49.53
2024-03-06T17:12:00.076Z,50.16
2024-03-06T17:14:27.925Z,49.71
2024-03-06T17:16:55.830Z,50.96
2024-03-06T17:19:24.554Z,50.12
2024-03-06T17:21:51.910Z,50.57
2024-03-06T17:24:19.174Z,50.85
2024-03-06T17:26:46.695Z,50.65
2024-03-06T17:29:14.242Z,50.49
2024-03-06T17:31:43.513Z,50.58
2024-03-06T17:34:10.863Z,50.16
2024-03-06T17:36:39.469Z,49.42
2024-03-06T17:39:07.227Z,49.55
2024-03-06T17:41:34.623Z,49.75
2024-03-06T17:44:03.456Z,50.18
2024-03-06T17:46:31.177Z,49.71
2024-03-06T17:48:58.465Z,49.82
2024-03-06T17:51:29.451Z,50.54
2024-03-06T17:53:58.384Z,50.41
2024-03-06T17:56:25.944Z,50.89
2024-03-06T17:58:53.411Z,51.59
2024-03-06T18:01:20.753Z,51.15
2024-03-06T18:03:48.079Z,51.43
2024-03-06T18:06:15.383Z,51.62
2024-03-06T18:08:42.781Z,51.70
2024-03-06T18:11:11.712Z,51.90
2024-03-06T18:13:38.986Z,52.31
2024-03-06T18:16:10.592Z,52.52
2024-03-06T18:18:38.603Z,53.27
2024-03-06T18:21:06.465Z,54.31
2024-03-06T18:23:33.757Z,56.09
2024-03-06T18:26:01.124Z,55.83
2024-03-06T18:28:29.807Z,57.65
2024-03-06T18:30:57.098Z,57.98
2024-03-06T18:33:24.384Z,57.83
2024-03-06T18:35:52.386Z,57.20
2024-03-06T18:38:19.729Z,57.11
2024-03-06T18:40:47.064Z,58.42
2024-03-06T18:43:14.451Z,58.07
2024-03-06T18:45:43.113Z,58.78
2024-03-06T18:48:10.490Z,59.55
2024-03-06T18:50:37.844Z,58.51
2024-03-06T18:53:05.189Z,58.55
2024-03-06T18:55:32.679Z,59.92
2024-03-06T18:58:00.017Z,60.18
2024-03-06T19:00:27.348Z,59.98
2024-03-06T19:02:56.300Z,60.42
2024-03-06T19:05:23.620Z,60.93
2024-03-06T19:07:50.937Z,60.95
2024-03-06T19:10:18.354Z,60.72
2024-03-06T19:12:45.669Z,61.36
2024-03-06T19:15:13.002Z,62.29
2024-03-06T19:17:40.392Z,62.82
2024-03-06T19:20:10.530Z,62.67
2024-03-06T19:22:37.862Z,63.31
2024-03-06T19:25:07.744Z,65.37
2024-03-06T19:27:35.113Z,66.20
2024-03-06T19:30:02.404Z,65.57
2024-03-06T19:32:39.231Z,65.72
2024-03-06T19:35:15.482Z,65.43
2024-03-06T19:37:42.779Z,65.70
2024-03-06T19:40:10.515Z,66.01
2024-03-06T19:42:37.804Z,67.33
2024-03-06T19:45:05.707Z,67.84
2024-03-06T19:47:33.426Z,68.25
2024-03-06T19:50:00.846Z,68.93
2024-03-06T19:52:29.530Z,68.76
2024-03-06T19:54:56.869Z,69.55
2024-03-06T19:57:24.561Z,68.44
2024-03-06T19:59:51.864Z,69.44
2024-03-06T20:02:19.182Z,69.84
2024-03-06T20:04:46.481Z,69.98
2024-03-06T20:07:13.731Z,70.77
2024-03-06T20:09:42.369Z,70.87
2024-03-06T20:12:09.748Z,70.31
2024-03-06T20:14:37.160Z,70.99
2024-03-06T20:17:04.672Z,71.46
2024-03-06T20:19:31.992Z,71.81
2024-03-06T20:21:59.300Z,71.27
2024-03-06T20:24:26.597Z,72.45
2024-03-06T20:26:55.361Z,72.73
2024-03-06T20:29:22.671Z,72.77
2024-03-06T20:31:50.237Z,74.21
2024-03-06T20:34:17.624Z,75.08
2024-03-06T20:36:44.979Z,75.13
2024-03-06T20:39:12.288Z,75.69
2024-03-06T20:41:39.630Z,77.73
2024-03-06T20:44:08.419Z,77.82
2024-03-06T20:46:35.698Z,78.57
2024-03-06T20:49:03.261Z,76.59
2024-03-06T20:51:30.509Z,77.26
2024-03-06T20:53:58.591Z,78.72
2024-03-06T20:56:26.293Z,79.62
2024-03-06T20:58:53.624Z,79.82
2024-03-06T21:01:22.382Z,79.04
2024-03-06T21:03:49.710Z,79.89
2024-03-06T21:06:17.016Z,81.40
2024-03-06T21:08:44.388Z,80.92
2024-03-06T21:11:11.864Z,81.34
2024-03-06T21:13:39.176Z,82.93
2024-03-06T21:16:06.848Z,83.63
2024-03-06T21:18:35.556Z,85.10
2024-03-06T21:21:02.982Z,85.63
2024-03-06T21:23:30.489Z,85.53
2024-03-06T21:25:58.035Z,86.36
2024-03-06T21:28:26.180Z,86.47
2024-03-06T21:30:53.521Z,87.05
2024-03-06T21:33:20.814Z,88.46
2024-03-06T21:35:49.570Z,88.76
2024-03-06T21:38:16.968Z,87.69
2024-03-06T21:40:44.326Z,87.73
2024-03-06T21:43:11.640Z,89.23
2024-03-06T21:45:38.970Z,87.13
2024-03-06T21:48:06.801Z,88.56
2024-03-06T21:50:34.153Z,89.16
2024-03-06T21:53:02.888Z,90.09
2024-03-06T21:55:30.133Z,89.40
2024-03-06T21:57:57.419Z,88.55
2024-03-06T22:00:24.752Z,89.02
2024-03-06T22:02:52.078Z,88.50
2024-03-06T22:05:19.734Z,88.67
2024-03-06T22:07:47.305Z,88.77
2024-03-06T22:10:16.045Z,89.99
2024-03-06T22:12:43.297Z,89.00
2024-03-06T22:15:10.744Z,88.08
2024-03-06T22:17:38.288Z,89.22
2024-03-06T22:20:07.260Z,88.87
2024-03-06T22:22:34.619Z,89.94
2024-03-06T22:25:02.268Z,88.60
2024-03-06T22:27:31.023Z,88.36
2024-03-06T22:29:58.333Z,90.20
2024-03-06T22:32:25.681Z,89.72
2024-03-06T22:34:52.967Z,89.78
2024-03-06T22:37:20.239Z,91.19
2024-03-06T22:39:47.521Z,89.78
2024-03-06T22:42:14.788Z,90.43
2024-03-06T22:44:43.469Z,92.28
2024-03-06T22:47:10.824Z,93.85
2024-03-06T22:49:38.088Z,92.36
2024-03-06T22:52:05.423Z,92.38
2024-03-06T22:54:32.709Z,92.69
2024-03-06T22:57:00.043Z,93.61
2024-03-06T22:59:27.414Z,94.41
2024-03-06T23:01:56.052Z,94.63
2024-03-06T23:04:23.321Z,94.61
2024-03-06T23:06:50.641Z,95.43
2024-03-06T23:09:18.061Z,94.94
2024-03-06T23:11:45.383Z,95.43
2024-03-06T23:14:12.713Z,95.43
2024-03-06T23:16:39.975Z,96.17
2024-03-06T23:19:08.927Z,97.32
2024-03-06T23:21:36.205Z,97.81
2024-03-06T23:24:03.810Z,97.41
2024-03-06T23:26:31.206Z,95.99
2024-03-06T23:28:58.748Z,96.67
2024-03-06T23:31:26.013Z,94.93
2024-03-06T23:33:53.288Z,96.82
2024-03-06T23:36:21.997Z,96.04
2024-03-06T23:38:49.502Z,96.04
2024-03-06T23:41:18.070Z,96.29
2024-03-06T23:43:46.438Z,96.40
2024-03-06T23:46:13.684Z,96.37
2024-03-06T23:48:41.014Z,96.42
2024-03-06T23:51:08.341Z,96.97
2024-03-06T23:53:37.164Z,98.68
2024-03-06T23:56:05.295Z,98.76
2024-03-06T23:58:32.576Z,98.19
